sensor_id;sensor_type;location;lat;lon;timestamp;P1;durP1;ratioP1;P2;durP2;ratioP2
54945;SDS011;40846;44.788;20.486;2023-05-27T00:00:51;19.25;;;12.80;;
54945;SDS011;40846;44.788;20.486;2023-05-27T00:03:17;16.95;;;12.68;;
54945;SDS011;40846;44.788;20.486;2023-05-27T00:05:43;23.92;;;12.38;;
54945;SDS011;40846;44.788;20.486;2023-05-27T00:08:09;22.25;;;12.48;;
54945;SDS011;40846;44.788;20.486;2023-05-27T00:10:35;23.55;;;12.50;;
54945;SDS011;40846;44.788;20.486;2023-05-27T00:13:01;26.52;;;13.25;;
54945;SDS011;40846;44.788;20.486;2023-05-27T00:15:27;18.38;;;12.77;;
54945;SDS011;40846;44.788;20.486;2023-05-27T00:17:53;24.02;;;13.77;;
54945;SDS011;40846;44.788;20.486;2023-05-27T00:20:21;22.48;;;13.27;;
54945;SDS011;40846;44.788;20.486;2023-05-27T00:22:47;17.63;;;13.10;;
54945;SDS011;40846;44.788;20.486;2023-05-27T00:25:14;20.75;;;12.30;;
54945;SDS011;40846;44.788;20.486;2023-05-27T00:27:41;23.33;;;12.73;;
54945;SDS011;40846;44.788;20.486;2023-05-27T00:30:07;19.58;;;14.20;;
54945;SDS011;40846;44.788;20.486;2023-05-27T00:32:34;26.45;;;12.95;;
54945;SDS011;40846;44.788;20.486;2023-05-27T00:35:00;17.63;;;12.90;;
54945;SDS011;40846;44.788;20.486;2023-05-27T00:37:26;20.25;;;12.82;;
54945;SDS011;40846;44.788;20.486;2023-05-27T00:39:52;20.55;;;12.82;;
54945;SDS011;40846;44.788;20.486;2023-05-27T00:42:18;16.92;;;11.50;;
54945;SDS011;40846;44.788;20.486;2023-05-27T00:44:45;21.45;;;12.10;;
54945;SDS011;40846;44.788;20.486;2023-05-27T00:47:11;18.63;;;11.35;;
54945;SDS011;40846;44.788;20.486;2023-05-27T00:49:37;16.50;;;10.40;;
54945;SDS011;40846;44.788;20.486;2023-05-27T00:52:03;17.98;;;9.93;;
54945;SDS011;40846;44.788;20.486;2023-05-27T00:54:30;14.98;;;9.68;;
54945;SDS011;40846;44.788;20.486;2023-05-27T00:56:58;15.90;;;8.95;;
54945;SDS011;40846;44.788;20.486;2023-05-27T00:59:27;16.20;;;9.18;;
54945;SDS011;40846;44.788;20.486;2023-05-27T01:01:53;12.65;;;9.23;;
54945;SDS011;40846;44.788;20.486;2023-05-27T01:04:20;14.95;;;9.07;;
54945;SDS011;40846;44.788;20.486;2023-05-27T01:07:02;18.05;;;8.95;;
54945;SDS011;40846;44.788;20.486;2023-05-27T01:09:38;13.25;;;8.43;;
54945;SDS011;40846;44.788;20.486;2023-05-27T01:12:10;13.98;;;9.40;;
54945;SDS011;40846;44.788;20.486;2023-05-27T01:14:38;18.30;;;9.57;;
54945;SDS011;40846;44.788;20.486;2023-05-27T01:17:06;16.38;;;8.85;;
54945;SDS011;40846;44.788;20.486;2023-05-27T01:19:39;18.60;;;8.35;;
54945;SDS011;40846;44.788;20.486;2023-05-27T01:22:13;15.65;;;9.27;;
54945;SDS011;40846;44.788;20.486;2023-05-27T01:24:39;12.88;;;8.30;;
54945;SDS011;40846;44.788;20.486;2023-05-27T01:27:08;15.52;;;8.50;;
54945;SDS011;40846;44.788;20.486;2023-05-27T01:29:37;14.68;;;8.48;;
54945;SDS011;40846;44.788;20.486;2023-05-27T01:32:14;15.13;;;8.98;;
54945;SDS011;40846;44.788;20.486;2023-05-27T01:34:41;12.35;;;7.50;;
54945;SDS011;40846;44.788;20.486;2023-05-27T01:37:12;15.00;;;8.48;;
54945;SDS011;40846;44.788;20.486;2023-05-27T01:39:39;16.67;;;8.10;;
54945;SDS011;40846;44.788;20.486;2023-05-27T01:42:06;15.80;;;8.65;;
54945;SDS011;40846;44.788;20.486;2023-05-27T01:44:33;10.65;;;7.78;;
54945;SDS011;40846;44.788;20.486;2023-05-27T01:47:00;15.93;;;8.65;;
54945;SDS011;40846;44.788;20.486;2023-05-27T01:49:27;12.07;;;8.75;;
54945;SDS011;40846;44.788;20.486;2023-05-27T01:51:53;13.30;;;9.07;;
54945;SDS011;40846;44.788;20.486;2023-05-27T01:54:19;15.20;;;8.50;;
54945;SDS011;40846;44.788;20.486;2023-05-27T01:56:45;19.42;;;8.52;;
54945;SDS011;40846;44.788;20.486;2023-05-27T01:59:11;16.67;;;9.05;;
54945;SDS011;40846;44.788;20.486;2023-05-27T02:01:37;18.90;;;9.23;;
54945;SDS011;40846;44.788;20.486;2023-05-27T02:04:04;19.48;;;8.57;;
54945;SDS011;40846;44.788;20.486;2023-05-27T02:06:30;15.25;;;8.98;;
54945;SDS011;40846;44.788;20.486;2023-05-27T02:08:57;13.40;;;9.10;;
54945;SDS011;40846;44.788;20.486;2023-05-27T02:11:23;14.48;;;8.85;;
54945;SDS011;40846;44.788;20.486;2023-05-27T02:13:50;14.02;;;8.80;;
54945;SDS011;40846;44.788;20.486;2023-05-27T02:16:17;12.85;;;8.60;;
54945;SDS011;40846;44.788;20.486;2023-05-27T02:18:46;18.70;;;9.15;;
54945;SDS011;40846;44.788;20.486;2023-05-27T02:21:14;15.48;;;9.20;;
54945;SDS011;40846;44.788;20.486;2023-05-27T02:23:40;14.57;;;8.88;;
54945;SDS011;40846;44.788;20.486;2023-05-27T02:26:06;11.73;;;7.93;;
54945;SDS011;40846;44.788;20.486;2023-05-27T02:28:32;12.38;;;8.43;;
54945;SDS011;40846;44.788;20.486;2023-05-27T02:30:59;13.60;;;8.48;;
54945;SDS011;40846;44.788;20.486;2023-05-27T02:33:25;13.93;;;8.85;;
54945;SDS011;40846;44.788;20.486;2023-05-27T02:35:51;11.73;;;7.68;;
54945;SDS011;40846;44.788;20.486;2023-05-27T02:38:17;13.38;;;8.55;;
54945;SDS011;40846;44.788;20.486;2023-05-27T02:40:43;16.65;;;9.73;;
54945;SDS011;40846;44.788;20.486;2023-05-27T02:43:09;14.98;;;9.52;;
54945;SDS011;40846;44.788;20.486;2023-05-27T02:45:35;14.65;;;8.75;;
54945;SDS011;40846;44.788;20.486;2023-05-27T02:48:04;17.75;;;8.68;;
54945;SDS011;40846;44.788;20.486;2023-05-27T02:50:30;14.65;;;8.85;;
54945;SDS011;40846;44.788;20.486;2023-05-27T02:52:56;12.77;;;8.38;;
54945;SDS011;40846;44.788;20.486;2023-05-27T02:55:22;13.90;;;9.00;;
54945;SDS011;40846;44.788;20.486;2023-05-27T02:57:48;12.60;;;9.07;;
54945;SDS011;40846;44.788;20.486;2023-05-27T03:00:15;12.02;;;8.18;;
54945;SDS011;40846;44.788;20.486;2023-05-27T03:02:42;13.27;;;8.82;;
54945;SDS011;40846;44.788;20.486;2023-05-27T03:05:08;17.63;;;10.45;;
54945;SDS011;40846;44.788;20.486;2023-05-27T03:07:34;14.55;;;8.70;;
54945;SDS011;40846;44.788;20.486;2023-05-27T03:10:00;14.27;;;8.48;;
54945;SDS011;40846;44.788;20.486;2023-05-27T03:12:26;11.15;;;7.97;;
54945;SDS011;40846;44.788;20.486;2023-05-27T03:14:52;15.70;;;8.60;;
54945;SDS011;40846;44.788;20.486;2023-05-27T03:17:19;18.02;;;8.75;;
54945;SDS011;40846;44.788;20.486;2023-05-27T03:19:45;17.65;;;9.38;;
54945;SDS011;40846;44.788;20.486;2023-05-27T03:22:11;13.38;;;7.78;;
54945;SDS011;40846;44.788;20.486;2023-05-27T03:24:37;12.50;;;7.72;;
54945;SDS011;40846;44.788;20.486;2023-05-27T03:27:03;12.23;;;8.00;;
54945;SDS011;40846;44.788;20.486;2023-05-27T03:29:30;12.60;;;7.22;;
54945;SDS011;40846;44.788;20.486;2023-05-27T03:31:56;12.10;;;7.38;;
54945;SDS011;40846;44.788;20.486;2023-05-27T03:34:23;13.65;;;7.45;;
54945;SDS011;40846;44.788;20.486;2023-05-27T03:36:49;9.77;;;7.05;;
54945;SDS011;40846;44.788;20.486;2023-05-27T03:39:16;12.70;;;7.10;;
54945;SDS011;40846;44.788;20.486;2023-05-27T03:41:44;10.10;;;6.93;;
54945;SDS011;40846;44.788;20.486;2023-05-27T03:44:10;13.70;;;6.93;;
54945;SDS011;40846;44.788;20.486;2023-05-27T03:46:36;12.90;;;8.20;;
54945;SDS011;40846;44.788;20.486;2023-05-27T03:49:02;13.73;;;8.07;;
54945;SDS011;40846;44.788;20.486;2023-05-27T03:51:28;12.15;;;6.93;;
54945;SDS011;40846;44.788;20.486;2023-05-27T03:53:55;10.95;;;7.72;;
54945;SDS011;40846;44.788;20.486;2023-05-27T03:56:21;31.20;;;8.23;;
54945;SDS011;40846;44.788;20.486;2023-05-27T03:58:47;10.13;;;7.05;;
54945;SDS011;40846;44.788;20.486;2023-05-27T04:01:13;11.93;;;7.68;;
54945;SDS011;40846;44.788;20.486;2023-05-27T04:03:41;16.60;;;7.88;;
54945;SDS011;40846;44.788;20.486;2023-05-27T04:06:08;14.07;;;7.65;;
54945;SDS011;40846;44.788;20.486;2023-05-27T04:08:34;13.65;;;7.70;;
54945;SDS011;40846;44.788;20.486;2023-05-27T04:11:02;14.68;;;7.38;;
54945;SDS011;40846;44.788;20.486;2023-05-27T04:13:28;11.75;;;7.65;;
54945;SDS011;40846;44.788;20.486;2023-05-27T04:15:54;10.63;;;7.35;;
54945;SDS011;40846;44.788;20.486;2023-05-27T04:18:24;16.50;;;7.50;;
54945;SDS011;40846;44.788;20.486;2023-05-27T04:20:50;9.93;;;7.50;;
54945;SDS011;40846;44.788;20.486;2023-05-27T04:23:17;17.88;;;7.72;;
54945;SDS011;40846;44.788;20.486;2023-05-27T04:25:43;11.13;;;7.07;;
54945;SDS011;40846;44.788;20.486;2023-05-27T04:28:09;14.65;;;7.63;;
54945;SDS011;40846;44.788;20.486;2023-05-27T04:30:35;12.65;;;7.47;;
54945;SDS011;40846;44.788;20.486;2023-05-27T04:33:02;12.50;;;7.57;;
54945;SDS011;40846;44.788;20.486;2023-05-27T04:35:28;11.27;;;6.82;;
54945;SDS011;40846;44.788;20.486;2023-05-27T04:37:56;11.02;;;7.60;;
54945;SDS011;40846;44.788;20.486;2023-05-27T04:40:24;11.65;;;7.53;;
54945;SDS011;40846;44.788;20.486;2023-05-27T04:42:50;13.63;;;8.20;;
54945;SDS011;40846;44.788;20.486;2023-05-27T04:45:16;14.60;;;7.35;;
54945;SDS011;40846;44.788;20.486;2023-05-27T04:47:43;14.25;;;7.05;;
54945;SDS011;40846;44.788;20.486;2023-05-27T04:50:09;15.27;;;7.25;;
54945;SDS011;40846;44.788;20.486;2023-05-27T04:52:36;14.27;;;8.00;;
54945;SDS011;40846;44.788;20.486;2023-05-27T04:55:07;10.73;;;7.13;;
54945;SDS011;40846;44.788;20.486;2023-05-27T04:57:33;27.77;;;8.80;;
54945;SDS011;40846;44.788;20.486;2023-05-27T05:00:00;14.23;;;8.23;;
54945;SDS011;40846;44.788;20.486;2023-05-27T05:02:35;12.45;;;7.88;;
54945;SDS011;40846;44.788;20.486;2023-05-27T05:05:01;13.50;;;7.22;;
54945;SDS011;40846;44.788;20.486;2023-05-27T05:07:27;10.57;;;7.22;;
54945;SDS011;40846;44.788;20.486;2023-05-27T05:09:54;14.60;;;7.90;;
54945;SDS011;40846;44.788;20.486;2023-05-27T05:12:20;16.27;;;8.07;;
54945;SDS011;40846;44.788;20.486;2023-05-27T05:14:48;16.08;;;7.93;;
54945;SDS011;40846;44.788;20.486;2023-05-27T05:17:14;15.52;;;7.45;;
54945;SDS011;40846;44.788;20.486;2023-05-27T05:19:40;14.85;;;7.50;;
54945;SDS011;40846;44.788;20.486;2023-05-27T05:22:07;16.05;;;8.23;;
54945;SDS011;40846;44.788;20.486;2023-05-27T05:24:33;14.45;;;8.38;;
54945;SDS011;40846;44.788;20.486;2023-05-27T05:26:59;15.02;;;7.68;;
54945;SDS011;40846;44.788;20.486;2023-05-27T05:29:25;10.75;;;7.82;;
54945;SDS011;40846;44.788;20.486;2023-05-27T05:31:51;14.80;;;8.40;;
54945;SDS011;40846;44.788;20.486;2023-05-27T05:34:17;14.25;;;8.38;;
54945;SDS011;40846;44.788;20.486;2023-05-27T05:36:43;15.35;;;9.07;;
54945;SDS011;40846;44.788;20.486;2023-05-27T05:39:09;23.88;;;9.57;;
54945;SDS011;40846;44.788;20.486;2023-05-27T05:41:36;15.80;;;8.10;;
54945;SDS011;40846;44.788;20.486;2023-05-27T05:44:02;16.02;;;8.60;;
54945;SDS011;40846;44.788;20.486;2023-05-27T05:46:30;24.30;;;9.27;;
54945;SDS011;40846;44.788;20.486;2023-05-27T05:48:56;20.55;;;8.60;;
54945;SDS011;40846;44.788;20.486;2023-05-27T05:51:22;15.02;;;8.65;;
54945;SDS011;40846;44.788;20.486;2023-05-27T05:53:48;11.77;;;8.68;;
54945;SDS011;40846;44.788;20.486;2023-05-27T05:56:15;12.07;;;8.90;;
54945;SDS011;40846;44.788;20.486;2023-05-27T05:58:41;16.98;;;9.77;;
54945;SDS011;40846;44.788;20.486;2023-05-27T06:01:09;11.73;;;8.80;;
54945;SDS011;40846;44.788;20.486;2023-05-27T06:03:35;16.20;;;9.15;;
54945;SDS011;40846;44.788;20.486;2023-05-27T06:06:01;32.33;;;10.98;;
54945;SDS011;40846;44.788;20.486;2023-05-27T06:08:27;16.88;;;9.55;;
54945;SDS011;40846;44.788;20.486;2023-05-27T06:10:54;12.40;;;8.52;;
54945;SDS011;40846;44.788;20.486;2023-05-27T06:13:20;17.55;;;8.95;;
54945;SDS011;40846;44.788;20.486;2023-05-27T06:15:46;14.48;;;8.48;;
54945;SDS011;40846;44.788;20.486;2023-05-27T06:18:12;12.80;;;9.00;;
54945;SDS011;40846;44.788;20.486;2023-05-27T06:20:38;16.55;;;8.48;;
54945;SDS011;40846;44.788;20.486;2023-05-27T06:23:04;17.77;;;9.15;;
54945;SDS011;40846;44.788;20.486;2023-05-27T06:25:31;15.82;;;8.50;;
54945;SDS011;40846;44.788;20.486;2023-05-27T06:27:57;14.02;;;9.43;;
54945;SDS011;40846;44.788;20.486;2023-05-27T06:30:24;13.85;;;8.60;;
54945;SDS011;40846;44.788;20.486;2023-05-27T06:32:50;15.82;;;8.75;;
54945;SDS011;40846;44.788;20.486;2023-05-27T06:35:17;14.85;;;8.85;;
54945;SDS011;40846;44.788;20.486;2023-05-27T06:37:43;21.52;;;8.40;;
54945;SDS011;40846;44.788;20.486;2023-05-27T06:40:09;18.40;;;9.75;;
54945;SDS011;40846;44.788;20.486;2023-05-27T06:42:36;12.55;;;8.43;;
54945;SDS011;40846;44.788;20.486;2023-05-27T06:45:02;13.35;;;8.50;;
54945;SDS011;40846;44.788;20.486;2023-05-27T06:47:39;13.15;;;8.75;;
54945;SDS011;40846;44.788;20.486;2023-05-27T06:50:22;15.48;;;9.65;;
54945;SDS011;40846;44.788;20.486;2023-05-27T06:52:49;12.95;;;8.98;;
54945;SDS011;40846;44.788;20.486;2023-05-27T06:55:15;12.70;;;9.45;;
54945;SDS011;40846;44.788;20.486;2023-05-27T06:57:41;16.25;;;9.95;;
54945;SDS011;40846;44.788;20.486;2023-05-27T07:00:07;14.07;;;9.43;;
54945;SDS011;40846;44.788;20.486;2023-05-27T07:02:33;16.15;;;9.57;;
54945;SDS011;40846;44.788;20.486;2023-05-27T07:04:59;14.30;;;9.25;;
54945;SDS011;40846;44.788;20.486;2023-05-27T07:07:26;14.50;;;9.77;;
54945;SDS011;40846;44.788;20.486;2023-05-27T07:09:52;24.00;;;10.40;;
54945;SDS011;40846;44.788;20.486;2023-05-27T07:12:19;17.58;;;10.07;;
54945;SDS011;40846;44.788;20.486;2023-05-27T07:14:45;23.67;;;9.93;;
54945;SDS011;40846;44.788;20.486;2023-05-27T07:17:11;14.23;;;9.65;;
54945;SDS011;40846;44.788;20.486;2023-05-27T07:19:40;14.20;;;9.65;;
54945;SDS011;40846;44.788;20.486;2023-05-27T07:22:06;20.80;;;9.98;;
54945;SDS011;40846;44.788;20.486;2023-05-27T07:24:32;11.88;;;9.38;;
54945;SDS011;40846;44.788;20.486;2023-05-27T07:26:58;14.25;;;10.07;;
54945;SDS011;40846;44.788;20.486;2023-05-27T07:29:24;20.33;;;10.50;;
54945;SDS011;40846;44.788;20.486;2023-05-27T07:31:50;17.45;;;10.48;;
54945;SDS011;40846;44.788;20.486;2023-05-27T07:34:16;16.45;;;10.55;;
54945;SDS011;40846;44.788;20.486;2023-05-27T07:36:43;16.42;;;10.20;;
54945;SDS011;40846;44.788;20.486;2023-05-27T07:39:09;16.30;;;10.05;;
54945;SDS011;40846;44.788;20.486;2023-05-27T07:41:35;15.25;;;10.68;;
54945;SDS011;40846;44.788;20.486;2023-05-27T07:44:01;17.58;;;11.88;;
54945;SDS011;40846;44.788;20.486;2023-05-27T07:46:27;15.82;;;10.40;;
54945;SDS011;40846;44.788;20.486;2023-05-27T07:48:53;16.02;;;9.98;;
54945;SDS011;40846;44.788;20.486;2023-05-27T07:51:19;21.10;;;9.95;;
54945;SDS011;40846;44.788;20.486;2023-05-27T07:53:45;20.20;;;11.68;;
54945;SDS011;40846;44.788;20.486;2023-05-27T07:56:13;19.50;;;11.48;;
54945;SDS011;40846;44.788;20.486;2023-05-27T07:58:39;18.00;;;11.65;;
54945;SDS011;40846;44.788;20.486;2023-05-27T08:01:05;15.55;;;11.05;;
54945;SDS011;40846;44.788;20.486;2023-05-27T08:03:31;19.58;;;11.57;;
54945;SDS011;40846;44.788;20.486;2023-05-27T08:06:00;18.83;;;11.30;;
54945;SDS011;40846;44.788;20.486;2023-05-27T08:08:28;34.03;;;12.00;;
54945;SDS011;40846;44.788;20.486;2023-05-27T08:10:55;21.65;;;11.45;;
54945;SDS011;40846;44.788;20.486;2023-05-27T08:13:22;23.60;;;11.65;;
54945;SDS011;40846;44.788;20.486;2023-05-27T08:15:48;16.83;;;11.43;;
54945;SDS011;40846;44.788;20.486;2023-05-27T08:18:14;17.80;;;11.00;;
54945;SDS011;40846;44.788;20.486;2023-05-27T08:20:40;13.32;;;10.45;;
54945;SDS011;40846;44.788;20.486;2023-05-27T08:23:06;15.85;;;10.18;;
54945;SDS011;40846;44.788;20.486;2023-05-27T08:25:32;17.15;;;10.65;;
54945;SDS011;40846;44.788;20.486;2023-05-27T08:27:58;18.17;;;10.23;;
54945;SDS011;40846;44.788;20.486;2023-05-27T08:30:28;21.77;;;11.02;;
54945;SDS011;40846;44.788;20.486;2023-05-27T08:32:57;13.80;;;10.48;;
54945;SDS011;40846;44.788;20.486;2023-05-27T08:35:23;14.52;;;10.27;;
54945;SDS011;40846;44.788;20.486;2023-05-27T08:37:50;19.50;;;10.90;;
54945;SDS011;40846;44.788;20.486;2023-05-27T08:40:17;21.50;;;10.85;;
54945;SDS011;40846;44.788;20.486;2023-05-27T08:42:45;17.40;;;9.95;;
54945;SDS011;40846;44.788;20.486;2023-05-27T08:45:11;17.08;;;10.75;;
54945;SDS011;40846;44.788;20.486;2023-05-27T08:47:38;12.27;;;9.80;;
54945;SDS011;40846;44.788;20.486;2023-05-27T08:50:05;14.95;;;10.50;;
54945;SDS011;40846;44.788;20.486;2023-05-27T08:52:32;20.20;;;10.35;;
54945;SDS011;40846;44.788;20.486;2023-05-27T08:54:58;17.52;;;10.50;;
54945;SDS011;40846;44.788;20.486;2023-05-27T08:57:27;13.90;;;9.68;;
54945;SDS011;40846;44.788;20.486;2023-05-27T08:59:57;16.23;;;10.93;;
54945;SDS011;40846;44.788;20.486;2023-05-27T09:02:30;24.77;;;11.50;;
54945;SDS011;40846;44.788;20.486;2023-05-27T09:04:56;21.95;;;10.73;;
54945;SDS011;40846;44.788;20.486;2023-05-27T09:07:22;12.32;;;9.63;;
54945;SDS011;40846;44.788;20.486;2023-05-27T09:09:57;12.65;;;9.35;;
54945;SDS011;40846;44.788;20.486;2023-05-27T09:12:23;15.57;;;9.75;;
54945;SDS011;40846;44.788;20.486;2023-05-27T09:14:50;21.80;;;10.13;;
54945;SDS011;40846;44.788;20.486;2023-05-27T09:17:16;15.18;;;10.25;;
54945;SDS011;40846;44.788;20.486;2023-05-27T09:19:43;14.15;;;10.15;;
54945;SDS011;40846;44.788;20.486;2023-05-27T09:22:17;16.90;;;10.93;;
54945;SDS011;40846;44.788;20.486;2023-05-27T09:24:44;17.23;;;10.57;;
54945;SDS011;40846;44.788;20.486;2023-05-27T09:27:10;18.25;;;10.27;;
54945;SDS011;40846;44.788;20.486;2023-05-27T09:29:39;15.93;;;9.63;;
54945;SDS011;40846;44.788;20.486;2023-05-27T09:32:05;14.90;;;10.40;;
54945;SDS011;40846;44.788;20.486;2023-05-27T09:34:45;20.08;;;11.13;;
54945;SDS011;40846;44.788;20.486;2023-05-27T09:37:12;26.70;;;11.27;;
54945;SDS011;40846;44.788;20.486;2023-05-27T09:39:42;15.65;;;10.57;;
54945;SDS011;40846;44.788;20.486;2023-05-27T09:42:08;13.57;;;9.85;;
54945;SDS011;40846;44.788;20.486;2023-05-27T09:44:35;14.10;;;10.35;;
54945;SDS011;40846;44.788;20.486;2023-05-27T09:47:08;20.95;;;10.75;;
54945;SDS011;40846;44.788;20.486;2023-05-27T09:49:34;17.75;;;10.23;;
54945;SDS011;40846;44.788;20.486;2023-05-27T09:52:03;16.48;;;9.77;;
54945;SDS011;40846;44.788;20.486;2023-05-27T09:54:38;16.60;;;9.50;;
54945;SDS011;40846;44.788;20.486;2023-05-27T09:57:07;17.05;;;10.20;;
54945;SDS011;40846;44.788;20.486;2023-05-27T09:59:37;20.05;;;10.23;;
54945;SDS011;40846;44.788;20.486;2023-05-27T10:02:04;13.82;;;10.50;;
54945;SDS011;40846;44.788;20.486;2023-05-27T10:04:37;21.52;;;10.52;;
54945;SDS011;40846;44.788;20.486;2023-05-27T10:07:04;14.48;;;9.93;;
54945;SDS011;40846;44.788;20.486;2023-05-27T10:09:33;14.13;;;10.82;;
54945;SDS011;40846;44.788;20.486;2023-05-27T10:11:59;17.25;;;10.98;;
54945;SDS011;40846;44.788;20.486;2023-05-27T10:14:26;14.45;;;10.00;;
54945;SDS011;40846;44.788;20.486;2023-05-27T10:16:53;16.73;;;10.32;;
54945;SDS011;40846;44.788;20.486;2023-05-27T10:19:24;18.73;;;11.13;;
54945;SDS011;40846;44.788;20.486;2023-05-27T10:21:53;18.75;;;11.40;;
54945;SDS011;40846;44.788;20.486;2023-05-27T10:24:19;21.40;;;12.10;;
54945;SDS011;40846;44.788;20.486;2023-05-27T10:26:45;19.48;;;11.43;;
54945;SDS011;40846;44.788;20.486;2023-05-27T10:29:13;16.08;;;11.10;;
54945;SDS011;40846;44.788;20.486;2023-05-27T10:31:51;16.27;;;11.10;;
54945;SDS011;40846;44.788;20.486;2023-05-27T10:34:17;17.00;;;10.13;;
54945;SDS011;40846;44.788;20.486;2023-05-27T10:36:44;18.88;;;11.82;;
54945;SDS011;40846;44.788;20.486;2023-05-27T10:39:14;15.35;;;10.45;;
54945;SDS011;40846;44.788;20.486;2023-05-27T10:41:51;22.15;;;13.65;;
54945;SDS011;40846;44.788;20.486;2023-05-27T10:44:33;25.05;;;13.52;;
54945;SDS011;40846;44.788;20.486;2023-05-27T10:47:00;20.15;;;10.88;;
54945;SDS011;40846;44.788;20.486;2023-05-27T10:49:33;23.20;;;11.63;;
54945;SDS011;40846;44.788;20.486;2023-05-27T10:52:07;16.60;;;11.57;;
54945;SDS011;40846;44.788;20.486;2023-05-27T10:54:38;33.30;;;14.20;;
54945;SDS011;40846;44.788;20.486;2023-05-27T10:57:04;23.95;;;12.02;;
54945;SDS011;40846;44.788;20.486;2023-05-27T10:59:50;21.83;;;12.50;;
54945;SDS011;40846;44.788;20.486;2023-05-27T11:02:17;22.67;;;11.23;;
54945;SDS011;40846;44.788;20.486;2023-05-27T11:04:46;14.25;;;11.23;;
54945;SDS011;40846;44.788;20.486;2023-05-27T11:07:17;18.58;;;10.50;;
54945;SDS011;40846;44.788;20.486;2023-05-27T11:12:12;13.02;;;10.60;;
54945;SDS011;40846;44.788;20.486;2023-05-27T11:17:09;18.95;;;11.45;;
54945;SDS011;40846;44.788;20.486;2023-05-27T11:19:38;20.67;;;11.60;;
54945;SDS011;40846;44.788;20.486;2023-05-27T11:22:14;12.82;;;9.93;;
54945;SDS011;40846;44.788;20.486;2023-05-27T11:24:41;14.90;;;11.40;;
54945;SDS011;40846;44.788;20.486;2023-05-27T11:27:12;13.93;;;10.80;;
54945;SDS011;40846;44.788;20.486;2023-05-27T11:29:38;14.10;;;11.27;;
54945;SDS011;40846;44.788;20.486;2023-05-27T11:32:07;16.40;;;11.68;;
54945;SDS011;40846;44.788;20.486;2023-05-27T11:34:36;15.45;;;11.52;;
54945;SDS011;40846;44.788;20.486;2023-05-27T11:37:02;18.08;;;11.18;;
54945;SDS011;40846;44.788;20.486;2023-05-27T11:39:29;21.75;;;11.40;;
54945;SDS011;40846;44.788;20.486;2023-05-27T11:41:55;15.85;;;11.32;;
54945;SDS011;40846;44.788;20.486;2023-05-27T11:44:25;15.32;;;11.55;;
54945;SDS011;40846;44.788;20.486;2023-05-27T11:46:52;14.40;;;10.70;;
54945;SDS011;40846;44.788;20.486;2023-05-27T11:49:18;16.95;;;10.98;;
54945;SDS011;40846;44.788;20.486;2023-05-27T11:51:50;20.70;;;11.40;;
54945;SDS011;40846;44.788;20.486;2023-05-27T11:54:20;17.17;;;11.85;;
54945;SDS011;40846;44.788;20.486;2023-05-27T11:56:47;28.60;;;11.90;;
54945;SDS011;40846;44.788;20.486;2023-05-27T11:59:13;16.17;;;11.00;;
54945;SDS011;40846;44.788;20.486;2023-05-27T12:01:40;20.63;;;11.82;;
54945;SDS011;40846;44.788;20.486;2023-05-27T12:04:06;17.13;;;12.57;;
54945;SDS011;40846;44.788;20.486;2023-05-27T12:06:35;18.13;;;10.65;;
54945;SDS011;40846;44.788;20.486;2023-05-27T12:09:02;20.23;;;11.20;;
54945;SDS011;40846;44.788;20.486;2023-05-27T12:11:29;15.65;;;11.07;;
54945;SDS011;40846;44.788;20.486;2023-05-27T12:13:55;20.23;;;11.00;;
54945;SDS011;40846;44.788;20.486;2023-05-27T12:16:21;21.20;;;11.27;;
54945;SDS011;40846;44.788;20.486;2023-05-27T12:18:47;25.40;;;11.73;;
54945;SDS011;40846;44.788;20.486;2023-05-27T12:21:15;16.83;;;11.13;;
54945;SDS011;40846;44.788;20.486;2023-05-27T12:23:42;18.20;;;11.30;;
54945;SDS011;40846;44.788;20.486;2023-05-27T12:26:08;15.32;;;12.38;;
54945;SDS011;40846;44.788;20.486;2023-05-27T12:28:35;22.75;;;12.45;;
54945;SDS011;40846;44.788;20.486;2023-05-27T12:31:01;32.00;;;10.98;;
54945;SDS011;40846;44.788;20.486;2023-05-27T12:33:31;13.93;;;10.77;;
54945;SDS011;40846;44.788;20.486;2023-05-27T12:35:57;15.82;;;11.43;;
54945;SDS011;40846;44.788;20.486;2023-05-27T12:38:24;15.68;;;11.05;;
54945;SDS011;40846;44.788;20.486;2023-05-27T12:40:50;16.95;;;11.73;;
54945;SDS011;40846;44.788;20.486;2023-05-27T12:43:19;16.05;;;9.98;;
54945;SDS011;40846;44.788;20.486;2023-05-27T12:45:45;17.05;;;10.70;;
54945;SDS011;40846;44.788;20.486;2023-05-27T12:48:12;17.20;;;11.10;;
54945;SDS011;40846;44.788;20.486;2023-05-27T12:50:38;23.05;;;11.30;;
54945;SDS011;40846;44.788;20.486;2023-05-27T12:53:04;20.63;;;11.60;;
54945;SDS011;40846;44.788;20.486;2023-05-27T12:55:30;17.52;;;10.80;;
54945;SDS011;40846;44.788;20.486;2023-05-27T12:57:57;12.65;;;9.80;;
54945;SDS011;40846;44.788;20.486;2023-05-27T13:00:23;24.10;;;11.93;;
54945;SDS011;40846;44.788;20.486;2023-05-27T13:02:49;14.45;;;11.25;;
54945;SDS011;40846;44.788;20.486;2023-05-27T13:05:16;22.13;;;11.82;;
54945;SDS011;40846;44.788;20.486;2023-05-27T13:07:55;18.48;;;10.68;;
54945;SDS011;40846;44.788;20.486;2023-05-27T13:10:21;14.80;;;9.88;;
54945;SDS011;40846;44.788;20.486;2023-05-27T13:12:48;14.05;;;9.77;;
54945;SDS011;40846;44.788;20.486;2023-05-27T13:15:14;19.70;;;10.93;;
54945;SDS011;40846;44.788;20.486;2023-05-27T13:17:44;15.45;;;8.45;;
54945;SDS011;40846;44.788;20.486;2023-05-27T13:20:11;16.60;;;9.35;;
54945;SDS011;40846;44.788;20.486;2023-05-27T13:22:41;20.38;;;12.35;;
54945;SDS011;40846;44.788;20.486;2023-05-27T13:25:08;13.18;;;8.85;;
54945;SDS011;40846;44.788;20.486;2023-05-27T13:27:34;15.32;;;8.18;;
54945;SDS011;40846;44.788;20.486;2023-05-27T13:30:01;12.63;;;7.88;;
54945;SDS011;40846;44.788;20.486;2023-05-27T13:32:28;23.90;;;8.38;;
54945;SDS011;40846;44.788;20.486;2023-05-27T13:34:54;17.77;;;8.77;;
54945;SDS011;40846;44.788;20.486;2023-05-27T13:37:20;13.85;;;8.98;;
54945;SDS011;40846;44.788;20.486;2023-05-27T13:39:46;11.43;;;7.72;;
54945;SDS011;40846;44.788;20.486;2023-05-27T13:42:12;11.18;;;8.15;;
54945;SDS011;40846;44.788;20.486;2023-05-27T13:44:39;16.40;;;8.60;;
54945;SDS011;40846;44.788;20.486;2023-05-27T13:47:08;14.32;;;8.23;;
54945;SDS011;40846;44.788;20.486;2023-05-27T13:49:34;12.48;;;7.72;;
54945;SDS011;40846;44.788;20.486;2023-05-27T13:52:01;11.07;;;7.63;;
54945;SDS011;40846;44.788;20.486;2023-05-27T13:54:27;19.70;;;8.93;;
54945;SDS011;40846;44.788;20.486;2023-05-27T13:56:53;16.02;;;8.35;;
54945;SDS011;40846;44.788;20.486;2023-05-27T13:59:19;16.55;;;8.48;;
54945;SDS011;40846;44.788;20.486;2023-05-27T14:01:45;13.05;;;9.38;;
54945;SDS011;40846;44.788;20.486;2023-05-27T14:04:12;14.73;;;8.20;;
54945;SDS011;40846;44.788;20.486;2023-05-27T14:06:38;15.20;;;8.48;;
54945;SDS011;40846;44.788;20.486;2023-05-27T14:09:04;11.88;;;8.75;;
54945;SDS011;40846;44.788;20.486;2023-05-27T14:11:30;20.60;;;9.57;;
54945;SDS011;40846;44.788;20.486;2023-05-27T14:13:57;16.23;;;10.00;;
54945;SDS011;40846;44.788;20.486;2023-05-27T14:16:24;11.63;;;8.80;;
54945;SDS011;40846;44.788;20.486;2023-05-27T14:18:52;12.98;;;8.98;;
54945;SDS011;40846;44.788;20.486;2023-05-27T14:21:18;14.02;;;8.95;;